Time;durP1;ratioP1;P1;durP2;ratioP2;P2;SDS_P1;SDS_P2;PMS_P1;PMS_P2;Temp;Humidity;BMP_temperature;BMP_pressure;BME280_temperature;BME280_humidity;BME280_pressure;Samples;Min_cycle;Max_cycle;Signal;HPM_P1;HPM_P2
2023/09/19 00:02:16;;;;;;;17.83;6.93;;;;;;;24.62;51.23;98636.34;4376026;32;34491;-93
2023/09/19 00:04:44;;;;;;;15.38;6.72;;;;;;;24.73;50.48;98633.97;4363237;32;34304;-95
2023/09/19 00:07:12;;;;;;;18.45;7.68;;;;;;;24.61;50.88;98637.28;4362007;32;33975;-94
2023/09/19 00:09:39;;;;;;;13.38;7.10;;;;;;;24.79;50.85;98642.56;4376233;32;34113;-94
2023/09/19 00:12:09;;;;;;;12.88;7.72;;;;;;;24.77;50.54;98639.97;4375618;32;33474;-94
2023/09/19 00:14:36;;;;;;;13.82;6.87;;;;;;;24.68;51.33;98645.78;4375744;32;34794;-94
2023/09/19 00:19:46;;;;;;;11.95;7.72;;;;;;;24.79;51.07;98640.75;4363508;32;33500;-94
2023/09/19 00:22:28;;;;;;;12.25;7.28;;;;;;;25.00;50.31;98636.97;4374176;32;33850;-94
2023/09/19 00:24:56;;;;;;;14.40;7.28;;;;;;;24.69;50.89;98637.72;4362480;32;34661;-94
2023/09/19 00:27:23;;;;;;;14.02;7.37;;;;;;;24.68;51.24;98645.78;4361911;32;33060;-95
2023/09/19 00:29:52;;;;;;;15.30;8.85;;;;;;;24.57;51.14;98643.69;4361889;32;34264;-95
2023/09/19 00:32:21;;;;;;;12.98;8.18;;;;;;;24.58;51.75;98634.78;4361851;32;34107;-94
2023/09/19 00:34:49;;;;;;;15.18;7.72;;;;;;;24.53;51.60;98634.19;4375901;32;34814;-94
2023/09/19 00:37:24;;;;;;;15.65;7.32;;;;;;;24.54;51.52;98629.75;4359600;32;33725;-94
2023/09/19 00:39:59;;;;;;;12.82;8.25;;;;;;;24.42;51.79;98628.59;4362468;32;33046;-95
2023/09/19 00:42:27;;;;;;;;;;;;;;;24.63;51.78;98638.09;4347379;32;33806;-92
2023/09/19 00:44:55;;;;;;;13.52;8.70;;;;;;;24.76;51.19;98628.53;4361365;32;33819;-94
2023/09/19 00:47:22;;;;;;;16.02;8.23;;;;;;;24.62;51.85;98631.03;4361997;32;33407;-94
2023/09/19 00:49:51;;;;;;;12.35;8.50;;;;;;;24.31;52.67;98628.25;4337516;32;33646;-94
2023/09/19 00:52:36;;;;;;;18.05;8.60;;;;;;;24.35;52.37;98630.66;4362405;32;33921;-93
2023/09/19 00:55:14;;;;;;;13.88;8.90;;;;;;;24.37;52.35;98635.91;4375415;32;33609;-93
2023/09/19 00:57:45;;;;;;;13.98;8.77;;;;;;;24.42;52.43;98629.44;4375420;32;34620;-93
2023/09/19 01:00:19;;;;;;;20.55;9.63;;;;;;;24.48;52.30;98633.59;4362200;32;33021;-93
2023/09/19 01:02:48;;;;;;;13.90;9.10;;;;;;;24.41;52.57;98630.41;4375334;32;33841;-94
2023/09/19 01:05:17;;;;;;;20.10;9.90;;;;;;;24.19;52.95;98646.50;4349985;32;34554;-94
2023/09/19 01:07:58;;;;;;;16.50;9.52;;;;;;;24.26;52.82;98642.59;4375294;32;34489;-93
2023/09/19 01:10:33;;;;;;;13.50;9.35;;;;;;;24.61;51.96;98639.94;4358899;32;33506;-93
2023/09/19 01:13:13;;;;;;;15.32;9.10;;;;;;;24.35;52.72;98632.47;4358983;32;34747;-93
2023/09/19 01:16:05;;;;;;;15.63;9.38;;;;;;;24.44;52.55;98632.03;4359193;32;33382;-93
2023/09/19 01:19:00;;;;;;;15.10;9.43;;;;;;;24.41;52.61;98634.84;4359037;32;33487;-94
2023/09/19 01:22:22;;;;;;;16.48;9.50;;;;;;;24.43;52.80;98636.44;4360086;32;33395;-93
2023/09/19 01:25:27;;;;;;;15.32;9.88;;;;;;;24.28;52.77;98640.75;4328160;33;34245;-94
2023/09/19 01:28:14;;;;;;;16.27;9.50;;;;;;;24.30;53.13;98632.72;4360078;32;34008;-93
2023/09/19 01:30:51;;;;;;;15.75;9.73;;;;;;;24.56;52.40;98628.72;4359252;32;33827;-94
2023/09/19 01:33:19;;;;;;;17.50;10.05;;;;;;;24.47;52.60;98619.50;4358225;32;33207;-94
2023/09/19 01:35:50;;;;;;;14.10;10.05;;;;;;;24.25;53.33;98621.50;4351585;32;33738;-93
2023/09/19 01:41:04;;;;;;;16.73;10.80;;;;;;;24.35;53.49;98617.41;4354682;32;33323;-93
2023/09/19 01:43:43;;;;;;;19.25;10.27;;;;;;;24.23;53.99;98616.28;4343700;32;34421;-93
2023/09/19 01:46:35;;;;;;;13.25;9.60;;;;;;;24.25;53.80;98609.13;4357882;32;34609;-93
2023/09/19 01:49:20;;;;;;;19.30;11.60;;;;;;;24.42;53.36;98615.34;4359064;32;34240;-94
2023/09/19 01:52:13;;;;;;;17.40;10.43;;;;;;;24.44;53.26;98627.59;4359719;32;34436;-94
2023/09/19 01:57:33;;;;;;;14.52;10.43;;;;;;;24.43;53.55;98619.72;4355264;32;34732;-92
2023/09/19 02:00:08;;;;;;;18.20;10.48;;;;;;;24.45;53.62;98618.69;4341803;32;34984;-92
2023/09/19 02:02:45;;;;;;;17.05;10.80;;;;;;;24.33;53.63;98624.62;4353872;32;33807;-94
2023/09/19 02:05:13;;;;;;;17.83;11.23;;;;;;;24.26;53.97;98618.75;4355948;32;33154;-94
2023/09/19 02:10:20;;;;;;;18.98;10.85;;;;;;;24.25;53.63;98622.37;4356232;32;33933;-93
2023/09/19 02:12:47;;;;;;;16.85;11.63;;;;;;;24.04;54.80;98628.75;4372330;32;33552;-93
2023/09/19 02:15:28;;;;;;;16.17;10.95;;;;;;;24.18;54.30;98625.41;4364421;32;33265;-93
2023/09/19 02:17:59;;;;;;;16.33;11.30;;;;;;;24.24;54.30;98615.34;4373090;32;33615;-93
2023/09/19 02:20:27;;;;;;;13.88;10.85;;;;;;;24.18;54.22;98610.38;4360597;32;34320;-94
2023/09/19 02:23:07;;;;;;;16.65;10.75;;;;;;;24.14;54.39;98616.75;4370632;32;33806;-93
2023/09/19 02:25:35;;;;;;;18.05;11.07;;;;;;;23.98;54.35;98618.44;4366931;32;32813;-93
2023/09/19 02:28:03;;;;;;;16.05;11.38;;;;;;;24.02;54.66;98615.59;4360153;32;33570;-94
2023/09/19 02:30:32;;;;;;;16.77;11.75;;;;;;;24.03;54.71;98619.09;4359914;32;33782;-93
2023/09/19 02:33:09;;;;;;;17.12;11.65;;;;;;;23.87;55.03;98620.81;4373035;32;34748;-94
2023/09/19 02:35:36;;;;;;;15.00;10.75;;;;;;;23.86;55.10;98621.72;4357158;32;32904;-94
2023/09/19 02:38:06;;;;;;;18.80;11.82;;;;;;;23.69;55.51;98612.84;4359993;32;33394;-93
2023/09/19 02:40:35;;;;;;;17.95;11.45;;;;;;;23.67;55.71;98625.28;4372943;32;33871;-93
2023/09/19 02:43:17;;;;;;;18.67;11.85;;;;;;;23.73;55.47;98632.94;4362246;32;33690;-93
2023/09/19 02:48:25;;;;;;;18.17;11.80;;;;;;;23.45;56.35;98624.56;4360096;32;34606;-93
2023/09/19 02:50:59;;;;;;;22.58;12.32;;;;;;;23.43;56.40;98627.31;4359836;32;33691;-94
2023/09/19 02:53:27;;;;;;;16.58;12.05;;;;;;;23.25;56.99;98630.81;4344868;32;33965;-95
2023/09/19 02:56:15;;;;;;;20.42;13.15;;;;;;;23.32;56.75;98626.97;4374508;32;33361;-93
2023/09/19 02:58:48;;;;;;;19.55;12.30;;;;;;;23.42;56.46;98616.81;4367202;32;34575;-93
2023/09/19 03:01:16;;;;;;;16.40;11.77;;;;;;;23.29;56.95;98608.59;4370903;32;34890;-95
2023/09/19 03:03:48;;;;;;;17.05;12.15;;;;;;;23.10;57.44;98616.53;4345871;32;33538;-93
2023/09/19 03:06:15;;;;;;;21.55;12.65;;;;;;;23.12;57.07;98625.28;4357309;32;32961;-93
2023/09/19 03:08:43;;;;;;;13.60;11.05;;;;;;;23.13;57.32;98626.12;4359585;32;33905;-93
2023/09/19 03:11:21;;;;;;;22.30;12.30;;;;;;;23.17;57.09;98633.84;4370623;32;35020;-93
2023/09/19 03:13:54;;;;;;;18.77;11.40;;;;;;;23.16;57.05;98629.47;4361664;32;34527;-95
2023/09/19 03:16:22;;;;;;;15.40;12.35;;;;;;;22.92;57.93;98631.50;4359300;32;33157;-93
2023/09/19 03:18:50;;;;;;;16.23;11.63;;;;;;;23.01;57.70;98624.91;4372688;32;33930;-93
2023/09/19 03:21:19;;;;;;;15.65;11.38;;;;;;;22.99;57.72;98624.13;4357767;32;33689;-93
2023/09/19 03:23:56;;;;;;;20.55;12.43;;;;;;;22.99;57.80;98617.03;4351654;32;33949;-92
2023/09/19 03:26:30;;;;;;;18.37;12.63;;;;;;;23.04;57.72;98630.91;4334427;32;33065;-94
2023/09/19 03:28:58;;;;;;;20.58;12.27;;;;;;;22.77;58.34;98630.38;4369225;32;35224;-93
2023/09/19 03:31:26;;;;;;;18.12;11.60;;;;;;;23.04;57.58;98622.13;4373781;32;34961;-94
2023/09/19 03:33:57;;;;;;;17.40;11.75;;;;;;;22.93;57.96;98619.13;4347629;32;34053;-93
2023/09/19 03:36:30;;;;;;;18.10;11.48;;;;;;;22.92;58.10;98635.88;4370324;32;34340;-93
2023/09/19 03:39:04;;;;;;;19.58;12.32;;;;;;;22.98;57.75;98639.13;4364097;32;33533;-93
2023/09/19 03:41:43;;;;;;;;;;;;;;;22.91;58.06;98628.87;4357818;32;33329;-94
2023/09/19 03:44:10;;;;;;;15.57;11.52;;;;;;;23.11;57.63;98622.69;4376149;32;34112;-93
2023/09/19 03:46:38;;;;;;;16.80;12.73;;;;;;;22.91;58.23;98623.56;4361585;32;33540;-94
2023/09/19 03:49:06;;;;;;;17.55;11.88;;;;;;;22.83;58.41;98631.84;4374843;32;33868;-95
2023/09/19 03:51:34;;;;;;;17.45;11.70;;;;;;;22.90;58.31;98632.44;4361252;32;35129;-93
2023/09/19 03:54:03;;;;;;;17.83;12.23;;;;;;;22.69;59.20;98635.16;4360356;32;33915;-93
2023/09/19 03:56:31;;;;;;;17.77;11.50;;;;;;;22.68;59.16;98643.97;4360895;32;32443;-93
2023/09/19 03:59:03;;;;;;;16.65;11.85;;;;;;;22.77;58.92;98637.44;4362552;32;34249;-94
2023/09/19 04:01:34;;;;;;;15.73;12.23;;;;;;;22.70;59.33;98636.00;4374484;32;35321;-93
2023/09/19 04:04:08;;;;;;;14.25;11.43;;;;;;;22.88;58.76;98634.28;4349154;32;34648;-93
2023/09/19 04:06:41;;;;;;;19.85;12.60;;;;;;;22.67;59.67;98628.22;4359342;32;33499;-93
2023/09/19 04:09:09;;;;;;;18.77;12.10;;;;;;;22.86;58.62;98641.44;4374184;32;34799;-93
2023/09/19 04:11:38;;;;;;;17.70;12.82;;;;;;;22.75;58.99;98639.28;4360660;32;33661;-94
2023/09/19 04:14:05;;;;;;;18.00;12.37;;;;;;;22.63;59.55;98638.06;4359191;32;32799;-94
2023/09/19 04:16:33;;;;;;;19.55;12.73;;;;;;;22.67;59.40;98641.41;4373949;32;34676;-93
2023/09/19 04:19:01;;;;;;;19.10;12.07;;;;;;;22.36;60.63;98647.19;4374246;32;35091;-92
2023/09/19 04:21:29;;;;;;;18.45;11.23;;;;;;;22.46;60.41;98637.94;4349044;32;34745;-92
2023/09/19 04:23:56;;;;;;;16.08;10.45;;;;;;;22.39;60.82;98650.56;4345197;32;33159;-91
2023/09/19 04:26:26;;;;;;;16.98;7.82;;;;;;;22.27;61.09;98665.13;4371582;32;33505;-91
2023/09/19 04:28:53;;;;;;;10.30;5.47;;;;;;;22.29;60.74;98665.09;4373444;32;34335;-90
2023/09/19 04:31:21;;;;;;;8.90;4.37;;;;;;;22.05;60.70;98670.47;4375216;32;34272;-91
2023/09/19 04:33:49;;;;;;;8.55;4.00;;;;;;;21.85;61.39;98673.91;4375217;32;33571;-90
2023/09/19 04:36:16;;;;;;;6.72;2.70;;;;;;;22.44;59.56;98666.22;4360554;32;31958;-88
2023/09/19 04:39:07;;;;;;;4.70;2.03;;;;;;;21.75;61.07;98664.66;4352494;32;33496;-88
2023/09/19 04:41:34;;;;;;;6.85;2.10;;;;;;;21.41;62.56;98682.75;4361362;32;34294;-90
2023/09/19 04:44:03;;;;;;;6.12;1.65;;;;;;;21.42;62.78;98687.97;4375337;32;34523;-89
2023/09/19 04:46:30;;;;;;;6.05;2.15;;;;;;;21.34;63.34;98700.59;4360125;32;33462;-89
2023/09/19 04:48:58;;;;;;;5.40;1.60;;;;;;;21.30;63.66;98698.94;4373427;32;33870;-93
2023/09/19 04:51:29;;;;;;;7.03;2.40;;;;;;;21.43;63.38;98696.72;4360733;32;34156;-89
2023/09/19 04:53:56;;;;;;;4.53;1.42;;;;;;;21.43;63.46;98694.94;4345251;32;32436;-91
2023/09/19 04:56:24;;;;;;;5.05;1.33;;;;;;;21.35;63.60;98687.31;4355873;32;33486;-91
2023/09/19 04:58:51;;;;;;;3.25;1.40;;;;;;;21.19;64.19;98687.94;4375622;32;34686;-89
2023/09/19 05:01:22;;;;;;;3.90;1.60;;;;;;;21.01;64.96;98705.31;4357707;32;33594;-91
2023/09/19 05:03:53;;;;;;;3.53;1.17;;;;;;;21.01;64.85;98700.88;4350755;32;33989;-92
2023/09/19 05:06:21;;;;;;;6.12;1.02;;;;;;;20.80;65.42;98705.19;4346268;32;33074;-89
2023/09/19 05:08:50;;;;;;;2.20;1.12;;;;;;;20.65;66.02;98719.75;4360767;32;34368;-90
2023/09/19 05:11:20;;;;;;;4.68;1.10;;;;;;;20.32;67.09;98716.47;4337886;32;33377;-89
2023/09/19 05:13:49;;;;;;;3.28;1.00;;;;;;;20.46;66.16;98723.06;4360550;32;33900;-88
2023/09/19 05:16:17;;;;;;;3.33;1.00;;;;;;;20.18;66.85;98721.34;4375535;32;33143;-92
2023/09/19 05:18:45;;;;;;;3.03;1.10;;;;;;;20.08;66.92;98728.69;4350018;32;33852;-89
2023/09/19 05:21:13;;;;;;;2.22;0.68;;;;;;;19.90;67.37;98730.16;4362240;32;34178;-92
2023/09/19 05:23:40;;;;;;;7.03;1.08;;;;;;;20.26;65.94;98735.09;4349667;32;33809;-92
2023/09/19 05:26:10;;;;;;;2.37;0.80;;;;;;;20.29;65.64;98744.69;4362392;32;33539;-90
2023/09/19 05:28:38;;;;;;;2.72;0.82;;;;;;;20.10;66.23;98740.03;4375661;32;33654;-89
2023/09/19 05:31:05;;;;;;;4.72;0.90;;;;;;;20.37;65.19;98735.59;4362052;32;34213;-94
2023/09/19 05:33:33;;;;;;;4.65;1.00;;;;;;;20.34;65.09;98725.19;4376011;32;33779;-92
2023/09/19 05:36:01;;;;;;;5.35;1.00;;;;;;;20.39;65.18;98725.91;4363161;32;31824;-92
2023/09/19 05:38:28;;;;;;;2.37;0.80;;;;;;;20.39;64.93;98731.16;4362515;32;32765;-90
2023/09/19 05:40:56;;;;;;;2.92;0.82;;;;;;;19.91;66.78;98731.00;4347034;32;34960;-90
2023/09/19 05:43:24;;;;;;;3.72;0.95;;;;;;;20.20;65.80;98727.44;4335255;32;33896;-91
2023/09/19 05:45:52;;;;;;;3.95;0.88;;;;;;;20.44;64.90;98732.78;4346982;32;33196;-90
2023/09/19 05:48:20;;;;;;;3.67;1.20;;;;;;;20.26;65.52;98742.16;4360090;32;34005;-91
2023/09/19 05:50:49;;;;;;;2.35;0.75;;;;;;;20.51;64.40;98736.97;4360266;32;33808;-91
2023/09/19 05:53:18;;;;;;;3.45;0.90;;;;;;;20.46;64.58;98738.88;4334868;32;32311;-93
2023/09/19 05:55:46;;;;;;;3.50;1.05;;;;;;;20.38;64.82;98742.63;4347200;32;32204;-90
2023/09/19 05:58:13;;;;;;;2.75;0.85;;;;;;;20.18;65.71;98738.00;4346844;32;34637;-92
2023/09/19 06:00:44;;;;;;;3.00;0.80;;;;;;;20.36;65.11;98740.94;4347271;32;33588;-92
2023/09/19 06:03:12;;;;;;;2.83;1.02;;;;;;;20.41;65.03;98731.94;4334885;32;33780;-92
2023/09/19 06:05:41;;;;;;;3.90;0.95;;;;;;;20.40;65.26;98740.78;4346815;32;33052;-89
2023/09/19 06:08:15;;;;;;;2.78;0.85;;;;;;;19.95;66.81;98734.41;4361799;32;33517;-95
2023/09/19 06:10:43;;;;;;;2.35;0.93;;;;;;;19.97;66.30;98738.72;4360439;32;33886;-91
2023/09/19 06:13:11;;;;;;;4.22;1.05;;;;;;;19.86;67.15;98749.56;4360414;32;33573;-93
2023/09/19 06:15:40;;;;;;;2.55;0.93;;;;;;;19.82;67.34;98753.22;4347125;32;33418;-91
2023/09/19 06:18:13;;;;;;;2.35;0.90;;;;;;;19.91;67.29;98749.41;4360435;32;34202;-91
2023/09/19 06:20:44;;;;;;;2.55;0.88;;;;;;;20.26;65.83;98747.41;4347208;32;33831;-93
2023/09/19 06:23:12;;;;;;;2.62;0.90;;;;;;;20.05;66.73;98759.50;4347333;32;34597;-91
2023/09/19 06:25:40;;;;;;;3.85;1.08;;;;;;;19.78;67.90;98743.69;4346731;32;34152;-94
2023/09/19 06:28:11;;;;;;;2.80;1.00;;;;;;;19.62;68.66;98756.47;4360638;32;33888;-92
2023/09/19 06:30:42;;;;;;;2.70;0.93;;;;;;;19.43;69.89;98765.75;4347087;32;33862;-91
2023/09/19 06:33:12;;;;;;;3.60;1.08;;;;;;;19.74;69.28;98764.88;4360296;32;33830;-92
2023/09/19 06:35:46;;;;;;;4.40;0.93;;;;;;;19.63;69.69;98768.69;4347162;32;33701;-92
2023/09/19 06:38:15;;;;;;;3.22;1.00;;;;;;;19.60;70.29;98767.88;4347396;32;33909;-93
2023/09/19 06:40:43;;;;;;;2.53;0.93;;;;;;;19.73;69.68;98761.38;4360500;32;34984;-91
2023/09/19 06:43:11;;;;;;;5.12;1.35;;;;;;;19.26;72.37;98768.03;4346457;32;34661;-92
2023/09/19 06:45:39;;;;;;;2.67;0.90;;;;;;;19.14;73.52;98767.47;4360153;32;33628;-94
2023/09/19 06:48:06;;;;;;;2.95;0.90;;;;;;;18.91;74.66;98778.62;4360260;32;33385;-92
2023/09/19 06:50:34;;;;;;;3.78;1.17;;;;;;;19.21;74.21;98786.56;4360144;32;33703;-93
2023/09/19 06:53:02;;;;;;;2.60;1.20;;;;;;;19.37;73.63;98787.84;4360166;32;34050;-91
2023/09/19 06:55:31;;;;;;;2.17;1.00;;;;;;;18.84;76.37;98795.44;4346611;32;32959;-88
2023/09/19 06:58:00;;;;;;;3.58;1.12;;;;;;;19.13;75.33;98809.53;4346698;32;34296;-93
2023/09/19 07:00:28;;;;;;;2.00;0.88;;;;;;;19.52;73.57;98823.34;4348278;32;33064;-92
2023/09/19 07:03:08;;;;;;;2.83;1.10;;;;;;;19.33;74.54;98817.75;4348617;32;33686;-94
2023/09/19 07:05:39;;;;;;;4.75;1.10;;;;;;;18.91;75.79;98825.91;4361684;32;33416;-93
2023/09/19 07:08:10;;;;;;;5.10;1.17;;;;;;;18.51;78.33;98831.25;4361774;32;33442;-93
2023/09/19 07:10:48;;;;;;;2.42;1.00;;;;;;;18.90;77.12;98832.06;4364794;32;34456;-95
2023/09/19 07:13:17;;;;;;;4.15;1.30;;;;;;;18.96;76.90;98834.50;4355133;32;33674;-94
2023/09/19 07:15:49;;;;;;;2.28;0.95;;;;;;;18.69;78.96;98829.94;4349057;32;33446;-95
2023/09/19 07:18:18;;;;;;;2.72;1.00;;;;;;;19.02;77.24;98836.13;4363162;32;34514;-95
2023/09/19 07:20:49;;;;;;;3.87;1.25;;;;;;;19.01;76.53;98846.66;4362445;32;34168;-96
2023/09/19 07:23:23;;;;;;;2.85;1.23;;;;;;;18.99;77.08;98837.97;4363581;32;34671;-92
2023/09/19 07:25:51;;;;;;;3.37;1.20;;;;;;;19.29;76.13;98839.75;4350465;32;34049;-96
2023/09/19 07:28:19;;;;;;;3.75;1.10;;;;;;;18.90;78.26;98834.69;4363010;32;34692;-95
2023/09/19 07:30:52;;;;;;;4.57;1.12;;;;;;;18.96;78.38;98845.00;4348184;32;34703;-94
2023/09/19 07:33:24;;;;;;;3.03;1.23;;;;;;;19.12;77.21;98845.47;4349490;32;33865;-96
2023/09/19 07:35:55;;;;;;;3.55;1.10;;;;;;;19.11;77.18;98850.78;4349095;32;34354;-95
2023/09/19 07:38:24;;;;;;;5.57;1.20;;;;;;;18.99;78.24;98853.72;4362064;32;33488;-94
2023/09/19 07:40:53;;;;;;;4.32;1.15;;;;;;;19.14;77.48;98848.06;4349858;32;34674;-96
2023/09/19 07:43:21;;;;;;;3.25;1.05;;;;;;;19.08;76.91;98862.22;4364450;32;34112;-96
2023/09/19 07:45:49;;;;;;;3.35;1.20;;;;;;;19.39;75.64;98867.50;4364773;32;33680;-95
2023/09/19 07:48:17;;;;;;;3.60;1.35;;;;;;;19.73;75.28;98863.94;4365646;32;34355;-96
2023/09/19 07:50:45;;;;;;;5.32;1.60;;;;;;;19.74;75.02;98867.47;4363301;32;33968;-96
2023/09/19 07:53:13;;;;;;;2.33;1.00;;;;;;;19.55;76.03;98880.25;4349407;32;33694;-94
2023/09/19 07:55:47;;;;;;;2.75;1.20;;;;;;;19.59;75.45;98889.78;4351756;32;33439;-94
2023/09/19 07:58:19;;;;;;;3.57;1.43;;;;;;;20.02;73.52;98883.28;4363106;32;34440;-92
2023/09/19 08:00:47;;;;;;;5.70;1.45;;;;;;;19.54;76.10;98889.88;4374872;32;33777;-95
2023/09/19 08:03:15;;;;;;;5.07;1.20;;;;;;;19.45;76.49;98891.00;4376997;32;33828;-95
2023/09/19 08:05:44;;;;;;;3.37;1.42;;;;;;;19.66;75.28;98893.94;4361539;32;32387;-95
2023/09/19 08:08:15;;;;;;;5.47;1.60;;;;;;;19.55;77.37;98890.75;4376300;32;34048;-94
2023/09/19 08:10:45;;;;;;;3.78;1.50;;;;;;;19.50;77.47;98903.16;4349848;32;33506;-89
2023/09/19 08:13:21;;;;;;;5.00;1.65;;;;;;;19.62;76.41;98906.34;4351020;32;34455;-94
2023/09/19 08:15:55;;;;;;;3.25;1.60;;;;;;;19.99;74.92;98902.63;4325679;32;33907;-94
2023/09/19 08:18:22;;;;;;;4.07;1.40;;;;;;;20.05;74.98;98904.25;4362812;32;34654;-93
2023/09/19 08:20:53;;;;;;;4.68;1.45;;;;;;;19.55;75.90;98909.16;4363109;32;33797;-91
2023/09/19 08:23:21;;;;;;;3.42;1.37;;;;;;;19.80;75.04;98914.62;4362323;32;34833;-90
2023/09/19 08:25:48;;;;;;;4.82;1.85;;;;;;;20.10;74.03;98910.22;4375844;32;33979;-93
2023/09/19 08:28:24;;;;;;;4.32;1.55;;;;;;;20.13;74.10;98913.63;4362203;32;34029;-91
2023/09/19 08:30:52;;;;;;;;;;;;;;;19.89;74.47;98924.88;4350202;32;33134;-95
2023/09/19 08:33:22;;;;;;;4.28;1.62;;;;;;;19.90;75.48;98924.84;4362416;32;34760;-96
2023/09/19 08:35:49;;;;;;;4.68;1.70;;;;;;;20.30;72.54;98925.41;4362298;32;33213;-94
2023/09/19 08:38:17;;;;;;;2.90;1.35;;;;;;;19.92;73.64;98930.91;4375439;32;33640;-95
2023/09/19 08:40:44;;;;;;;3.62;1.83;;;;;;;19.66;75.16;98941.28;4362177;32;34064;-96
2023/09/19 08:43:35;;;;;;;5.15;1.58;;;;;;;19.63;75.27;98951.94;4351382;32;33915;-92
2023/09/19 08:46:08;;;;;;;5.22;2.08;;;;;;;19.95;74.35;98963.31;4362837;32;34170;-93
2023/09/19 08:48:39;;;;;;;4.03;1.67;;;;;;;19.95;73.82;98969.41;4375746;32;34633;-95
2023/09/19 08:51:18;;;;;;;4.70;2.10;;;;;;;20.01;74.25;98977.16;4375555;32;34160;-93
2023/09/19 08:53:59;;;;;;;6.47;2.53;;;;;;;19.66;75.72;98986.00;4375520;32;34110;-94
2023/09/19 08:56:29;;;;;;;5.75;3.35;;;;;;;19.50;76.54;98987.28;4350488;32;33255;-96
2023/09/19 08:59:12;;;;;;;6.43;4.03;;;;;;;19.77;75.85;98983.94;4375635;32;34107;-93
2023/09/19 09:01:43;;;;;;;6.85;4.40;;;;;;;19.64;76.91;98977.31;4351069;32;33719;-93
2023/09/19 09:04:22;;;;;;;7.85;4.45;;;;;;;19.84;75.59;98971.50;4375791;32;34126;-93
2023/09/19 09:06:53;;;;;;;6.90;4.10;;;;;;;20.35;73.25;98958.59;4361614;32;33649;-94
2023/09/19 09:09:21;;;;;;;7.50;4.87;;;;;;;20.17;74.27;98953.88;4362004;32;33622;-94
2023/09/19 09:11:52;;;;;;;8.23;5.28;;;;;;;20.46;73.55;98937.22;4349271;32;33342;-94
2023/09/19 09:14:25;;;;;;;8.02;4.18;;;;;;;19.93;75.62;98926.53;4351289;32;33664;-93
2023/09/19 09:16:56;;;;;;;7.93;4.62;;;;;;;20.10;73.98;98910.22;4362121;32;34411;-91
2023/09/19 09:19:24;;;;;;;8.63;4.97;;;;;;;20.38;74.20;98907.59;4375646;32;34649;-96
2023/09/19 09:21:52;;;;;;;7.10;4.82;;;;;;;20.39;75.06;98899.66;4349573;32;33115;-94
2023/09/19 09:24:30;;;;;;;7.03;5.25;;;;;;;20.53;73.97;98898.38;4362024;32;34922;-95
2023/09/19 09:26:58;;;;;;;7.97;5.40;;;;;;;20.48;74.64;98908.19;4361701;32;32951;-95
2023/09/19 09:29:52;;;;;;;7.25;4.68;;;;;;;20.50;74.18;98903.78;4375355;32;33524;-96
2023/09/19 09:32:25;;;;;;;8.10;4.55;;;;;;;20.71;73.04;98915.38;4375708;32;34101;-94
2023/09/19 09:34:58;;;;;;;8.05;5.12;;;;;;;20.38;74.10;98921.66;4375452;32;34855;-95
2023/09/19 09:37:31;;;;;;;9.57;5.37;;;;;;;20.60;73.74;98926.25;4375749;32;33315;-93
2023/09/19 09:40:19;;;;;;;8.30;5.57;;;;;;;20.23;75.36;98942.28;4361931;32;33415;-94
2023/09/19 09:42:52;;;;;;;9.45;6.07;;;;;;;19.79;78.03;98947.09;4351810;32;32891;-94
2023/09/19 09:48:03;;;;;;;7.50;6.15;;;;;;;20.18;76.25;98951.19;4362698;32;33447;-93
2023/09/19 09:50:51;;;;;;;10.48;6.80;;;;;;;19.81;76.93;98951.41;4349397;32;34175;-93
2023/09/19 09:53:32;;;;;;;8.30;6.97;;;;;;;20.06;77.05;98955.97;4357589;32;210498;-94
2023/09/19 09:56:15;;;;;;;10.75;7.25;;;;;;;20.17;77.73;98953.88;4370768;32;34902;-94
2023/09/19 09:58:55;;;;;;;11.70;7.70;;;;;;;20.11;77.73;98951.41;4349229;32;34342;-93
2023/09/19 10:01:46;;;;;;;9.77;6.82;;;;;;;20.17;77.02;98943.34;4370532;32;34435;-95
2023/09/19 10:04:36;;;;;;;11.60;7.57;;;;;;;20.54;76.34;98950.16;4374955;32;34054;-91
2023/09/19 10:07:11;;;;;;;11.82;6.95;;;;;;;20.70;75.49;98946.12;4357262;32;34909;-92
2023/09/19 10:09:47;;;;;;;8.60;7.12;;;;;;;20.85;75.47;98943.00;4360797;32;34341;-92
2023/09/19 10:12:16;;;;;;;9.80;7.30;;;;;;;21.09;74.66;98943.97;4361345;32;31995;-92
2023/09/19 10:14:47;;;;;;;7.65;6.07;;;;;;;21.21;74.84;98950.59;4374616;32;34934;-94
2023/09/19 10:17:20;;;;;;;9.85;6.10;;;;;;;21.04;73.77;98953.81;4361621;32;34590;-90
2023/09/19 10:19:58;;;;;;;8.48;6.57;;;;;;;21.08;73.97;98957.19;4349259;32;33954;-93
2023/09/19 10:22:26;;;;;;;7.57;6.60;;;;;;;20.88;74.87;98947.31;4361490;32;33916;-91
2023/09/19 10:24:55;;;;;;;7.20;5.82;;;;;;;21.14;74.59;98959.66;4361684;32;35066;-96
2023/09/19 10:27:37;;;;;;;8.65;6.25;;;;;;;20.82;74.87;98958.91;4362360;32;34857;-92
2023/09/19 10:30:08;;;;;;;7.87;5.70;;;;;;;21.20;74.58;98964.69;4361583;32;33368;-94
2023/09/19 10:32:40;;;;;;;7.07;6.03;;;;;;;20.97;74.02;98959.34;4361299;32;34521;-92
2023/09/19 10:35:12;;;;;;;8.70;5.65;;;;;;;21.11;73.50;98960.59;4362240;32;34135;-91
2023/09/19 10:37:40;;;;;;;7.12;5.40;;;;;;;21.01;73.51;98967.06;4362647;32;34468;-96
2023/09/19 10:40:09;;;;;;;6.18;5.03;;;;;;;20.85;74.11;98965.88;4361587;32;33662;-96
2023/09/19 10:42:41;;;;;;;8.98;5.25;;;;;;;20.92;73.61;98969.16;4361759;32;34753;-89
2023/09/19 10:45:13;;;;;;;7.60;5.37;;;;;;;21.14;72.68;98965.78;4361268;32;34318;-94
2023/09/19 10:47:40;;;;;;;9.55;5.40;;;;;;;21.06;72.62;98964.28;4374745;32;34515;-88
2023/09/19 10:50:09;;;;;;;6.40;4.55;;;;;;;21.23;72.62;98971.66;4361332;32;33656;-93
2023/09/19 10:52:40;;;;;;;6.80;4.43;;;;;;;21.45;72.01;98983.22;4361073;32;33833;-93
2023/09/19 10:55:18;;;;;;;6.53;4.15;;;;;;;21.55;71.66;98989.88;4362173;32;33656;-90
2023/09/19 10:57:46;;;;;;;6.97;3.53;;;;;;;21.67;70.72;98980.72;4349323;32;34260;-94
2023/09/19 11:00:23;;;;;;;7.37;4.37;;;;;;;21.70;70.13;98991.12;4361520;32;33273;-92
2023/09/19 11:03:12;;;;;;;6.62;3.95;;;;;;;21.70;71.61;98996.41;4374807;32;33902;-93
2023/09/19 11:05:41;;;;;;;7.10;3.70;;;;;;;21.38;72.66;98990.47;4374099;32;34139;-93
2023/09/19 11:08:09;;;;;;;5.65;3.10;;;;;;;21.14;72.60;98986.00;4358359;32;34185;-92
2023/09/19 11:10:51;;;;;;;5.30;3.25;;;;;;;21.45;71.03;98996.41;4358495;32;33309;-92
2023/09/19 11:13:31;;;;;;;4.80;2.80;;;;;;;21.53;70.97;98997.00;4371493;32;33908;-89
2023/09/19 11:15:58;;;;;;;6.47;2.97;;;;;;;22.24;69.43;98997.16;4353871;32;33699;-92
2023/09/19 11:18:42;;;;;;;4.50;2.30;;;;;;;21.94;69.56;98988.56;4379845;32;34017;-88
2023/09/19 11:21:29;;;;;;;3.87;1.60;;;;;;;22.51;65.86;98985.53;4374139;32;33796;-90
2023/09/19 11:24:22;;;;;;;3.60;1.87;;;;;;;22.28;66.11;98983.78;4369999;32;34046;-91
2023/09/19 11:26:50;;;;;;;4.03;1.23;;;;;;;22.32;65.14;98979.22;4371685;32;33917;-92
2023/09/19 11:29:26;;;;;;;5.40;1.23;;;;;;;22.24;63.70;98979.53;4374637;32;33709;-88
2023/09/19 11:31:56;;;;;;;5.12;1.10;;;;;;;21.89;64.04;98977.28;4373853;32;34591;-89
2023/09/19 11:34:36;;;;;;;5.32;1.27;;;;;;;22.27;63.55;98971.47;4374393;32;33650;-88
2023/09/19 11:37:13;;;;;;;4.25;1.52;;;;;;;22.97;62.22;98974.94;4360646;32;35050;-88
2023/09/19 11:40:16;;;;;;;5.82;1.77;;;;;;;22.52;63.60;98971.41;4374299;32;33763;-90
2023/09/19 11:42:45;;;;;;;3.87;1.73;;;;;;;22.43;62.35;98970.91;4359554;32;34136;-87
2023/09/19 11:45:49;;;;;;;5.25;1.67;;;;;;;22.33;62.96;98971.25;4374583;32;34057;-90
2023/09/19 11:48:18;;;;;;;4.10;1.52;;;;;;;22.66;62.56;98972.66;4376036;32;34038;-91
2023/09/19 11:50:47;;;;;;;4.18;1.58;;;;;;;22.76;63.10;98971.34;4376350;32;34412;-90
2023/09/19 11:53:16;;;;;;;4.15;1.70;;;;;;;23.40;61.07;98971.34;4375901;32;34238;-88
2023/09/19 11:55:44;;;;;;;3.87;1.60;;;;;;;23.15;61.19;98975.97;4362707;32;33498;-88
2023/09/19 11:58:16;;;;;;;4.57;1.90;;;;;;;23.12;60.97;98970.81;4375926;32;33778;-90
2023/09/19 12:00:44;;;;;;;4.50;1.70;;;;;;;22.82;61.04;98968.47;4363084;32;34066;-91
2023/09/19 12:03:18;;;;;;;7.35;1.80;;;;;;;22.94;60.64;98964.50;4376193;32;33268;-90
2023/09/19 12:05:46;;;;;;;5.07;1.65;;;;;;;22.85;61.09;98962.19;4362402;32;34804;-92
2023/09/19 12:08:17;;;;;;;4.75;1.75;;;;;;;22.93;60.21;98966.28;4362691;32;34102;-93
2023/09/19 12:10:48;;;;;;;3.62;1.50;;;;;;;23.03;59.33;98961.47;4350538;32;34010;-92